Time;durP1;ratioP1;P1;durP2;ratioP2;P2;SDS_P1;SDS_P2;PMS_P1;PMS_P2;Temp;Humidity;BMP_temperature;BMP_pressure;BME280_temperature;BME280_humidity;BME280_pressure;Samples;Min_cycle;Max_cycle;Signal;HPM_P1;HPM_P2
2023/10/07 00:01:16;;;;;;;10.18;4.53;;;;;;;13.03;100.00;102133.13;5032790;28;20371;-48
2023/10/07 00:03:42;;;;;;;9.50;4.57;;;;;;;13.02;100.00;102134.09;5034115;28;20080;-47
2023/10/07 00:06:09;;;;;;;10.38;4.65;;;;;;;13.03;100.00;102134.97;5038023;28;20087;-46
2023/10/07 00:08:35;;;;;;;9.93;4.68;;;;;;;13.03;100.00;102118.97;5037327;28;20398;-49
2023/10/07 00:11:01;;;;;;;11.48;4.95;;;;;;;12.99;100.00;102112.97;5035837;28;20026;-48
2023/10/07 00:13:31;;;;;;;11.38;4.75;;;;;;;12.99;100.00;102104.97;5033737;28;20430;-47
2023/10/07 00:15:56;;;;;;;9.25;4.53;;;;;;;12.99;100.00;102090.75;5035505;28;20030;-48
2023/10/07 00:18:23;;;;;;;7.97;4.85;;;;;;;12.99;100.00;102101.44;5034558;28;20113;-48
2023/10/07 00:20:56;;;;;;;9.93;5.25;;;;;;;12.96;100.00;102108.69;5035516;28;20144;-48
2023/10/07 00:23:23;;;;;;;9.82;4.70;;;;;;;12.93;100.00;102108.03;5033298;28;20396;-48
2023/10/07 00:25:50;;;;;;;11.07;4.78;;;;;;;12.96;100.00;102111.34;5033682;28;20365;-48
2023/10/07 00:28:19;;;;;;;12.95;4.90;;;;;;;12.94;100.00;102117.75;5033776;28;20075;-48
2023/10/07 00:30:45;;;;;;;11.95;5.10;;;;;;;12.95;100.00;102106.13;5035270;28;20032;-48
2023/10/07 00:33:14;;;;;;;13.20;5.05;;;;;;;12.93;100.00;102106.22;5032319;28;20465;-48
2023/10/07 00:35:40;;;;;;;10.23;5.30;;;;;;;12.93;100.00;102105.38;5035772;28;20382;-48
2023/10/07 00:38:13;;;;;;;11.02;5.40;;;;;;;12.93;100.00;102114.22;5033551;28;20057;-48
2023/10/07 00:40:52;;;;;;;12.38;5.60;;;;;;;12.93;100.00;102103.56;5035535;28;20033;-47
2023/10/07 00:43:26;;;;;;;15.02;5.40;;;;;;;12.94;100.00;102101.75;5034044;28;20558;-48
2023/10/07 00:45:59;;;;;;;11.73;6.28;;;;;;;12.94;100.00;102117.75;5037001;28;20025;-48
2023/10/07 00:48:38;;;;;;;10.18;5.20;;;;;;;12.94;100.00;102101.75;5033858;28;20395;-47
2023/10/07 00:51:09;;;;;;;12.38;5.75;;;;;;;12.95;100.00;102108.78;5036424;28;20038;-47
2023/10/07 00:53:45;;;;;;;10.68;5.50;;;;;;;12.94;100.00;102117.75;5035717;28;20044;-48
2023/10/07 00:56:12;;;;;;;15.65;6.50;;;;;;;12.92;100.00;102117.88;5035829;28;20037;-47
2023/10/07 00:58:41;;;;;;;12.98;6.30;;;;;;;12.92;100.00;102111.66;5034848;28;20025;-48
2023/10/07 01:01:12;;;;;;;13.65;6.10;;;;;;;12.92;100.00;102095.66;5034583;28;20021;-48
2023/10/07 01:03:47;;;;;;;12.52;5.75;;;;;;;12.91;100.00;102096.63;5036365;28;20021;-48
2023/10/07 01:06:25;;;;;;;12.98;6.78;;;;;;;12.88;100.00;102094.16;5033708;28;20029;-48
2023/10/07 01:08:56;;;;;;;19.70;6.40;;;;;;;12.89;100.00;102087.84;5033539;28;20037;-48
2023/10/07 01:11:23;;;;;;;11.95;6.38;;;;;;;12.89;100.00;102086.06;5039349;28;20029;-48
2023/10/07 01:13:50;;;;;;;10.93;6.55;;;;;;;12.88;100.00;102079.00;5036233;28;20463;-48
2023/10/07 01:21:51;;;;;;;13.23;6.53;;;;;;;12.86;100.00;102094.25;5037274;28;20087;-48
2023/10/07 01:24:23;;;;;;;12.68;6.28;;;;;;;12.86;100.00;102104.09;5034357;28;20488;-48
2023/10/07 01:26:49;;;;;;;13.80;6.30;;;;;;;12.85;100.00;102115.69;5035174;28;20498;-47
2023/10/07 01:29:15;;;;;;;14.52;6.40;;;;;;;12.86;100.00;102110.25;5032860;28;20037;-48
2023/10/07 01:32:04;;;;;;;13.13;7.25;;;;;;;12.86;100.00;102093.41;5033005;28;20565;-48
2023/10/07 01:34:35;;;;;;;15.48;7.13;;;;;;;12.84;100.00;102109.50;5033602;28;20029;-47
2023/10/07 01:37:11;;;;;;;12.30;7.00;;;;;;;12.86;100.00;102101.41;5035546;28;20644;-48
2023/10/07 01:39:40;;;;;;;11.50;7.05;;;;;;;12.86;100.00;102098.75;5031862;28;20056;-47
2023/10/07 01:42:35;;;;;;;14.23;7.13;;;;;;;12.84;100.00;102081.97;5033911;28;20033;-47
2023/10/07 01:45:10;;;;;;;12.48;6.85;;;;;;;12.86;100.00;102086.25;5037142;28;20067;-47
2023/10/07 01:47:35;;;;;;;15.05;7.47;;;;;;;12.84;100.00;102097.97;5031199;28;20053;-47
2023/10/07 01:50:11;;;;;;;15.68;7.32;;;;;;;12.84;100.00;102087.31;5033316;28;20052;-47
2023/10/07 01:52:37;;;;;;;18.50;7.68;;;;;;;12.85;100.00;102089.88;5032211;28;20030;-48
2023/10/07 01:55:08;;;;;;;18.15;8.73;;;;;;;12.87;100.00;102084.44;5032412;28;20075;-48
2023/10/07 01:57:34;;;;;;;13.93;7.55;;;;;;;12.87;100.00;102084.44;5032813;28;20028;-48
2023/10/07 02:00:04;;;;;;;17.83;8.60;;;;;;;12.87;100.00;102077.31;5032686;28;20025;-48
2023/10/07 02:02:30;;;;;;;17.88;8.52;;;;;;;12.89;100.00;102090.53;5030937;28;20033;-48
2023/10/07 02:04:56;;;;;;;14.27;8.32;;;;;;;12.92;100.00;102088.53;5032159;28;20057;-48
2023/10/07 02:07:22;;;;;;;17.40;8.70;;;;;;;12.92;100.00;102085.00;5031220;28;20076;-47
2023/10/07 02:09:48;;;;;;;24.45;9.55;;;;;;;12.95;100.00;102085.63;5036538;28;20076;-47
2023/10/07 02:12:18;;;;;;;15.70;9.63;;;;;;;12.99;100.00;102094.31;5033086;28;20395;-47
2023/10/07 02:14:44;;;;;;;19.00;9.73;;;;;;;13.02;100.00;102090.56;5031395;28;20479;-49
2023/10/07 02:17:10;;;;;;;17.00;10.52;;;;;;;13.04;100.00;102083.31;5032847;28;20136;-47
2023/10/07 02:19:40;;;;;;;18.73;10.07;;;;;;;13.04;100.00;102067.31;5033446;28;20123;-47
2023/10/07 02:22:20;;;;;;;16.80;9.95;;;;;;;13.06;100.00;102070.75;5030922;28;20037;-47
2023/10/07 02:24:50;;;;;;;20.42;10.77;;;;;;;13.10;100.00;102074.91;5031460;28;20143;-47
2023/10/07 02:27:25;;;;;;;20.80;11.15;;;;;;;13.11;100.00;102081.97;5030913;28;20467;-48
2023/10/07 02:29:52;;;;;;;24.52;11.48;;;;;;;13.14;100.00;102084.44;5035084;28;20033;-48
2023/10/07 02:32:17;;;;;;;20.83;11.77;;;;;;;13.16;100.00;102084.31;5033846;28;20029;-47
2023/10/07 02:34:55;;;;;;;19.23;11.82;;;;;;;13.17;100.00;102070.84;5032458;28;20025;-48
2023/10/07 02:37:38;;;;;;;18.95;12.68;;;;;;;13.22;100.00;102081.22;5037629;28;20025;-48
2023/10/07 02:40:19;;;;;;;29.10;14.05;;;;;;;13.25;100.00;102079.19;5042070;28;20241;-47
2023/10/07 02:42:46;;;;;;;22.00;12.88;;;;;;;13.27;100.00;102087.09;5039060;28;20032;-48
2023/10/07 02:47:47;;;;;;;20.88;13.80;;;;;;;13.31;100.00;102085.94;5036274;28;20049;-48
2023/10/07 02:50:13;;;;;;;20.65;13.77;;;;;;;13.34;100.00;102091.09;5035587;28;20468;-47
2023/10/07 02:52:39;;;;;;;23.90;14.55;;;;;;;13.36;100.00;102078.50;5034515;28;20036;-47
2023/10/07 02:55:37;;;;;;;23.17;15.50;;;;;;;13.39;100.00;102078.28;5036801;28;20033;-48
2023/10/07 02:57:55;;;;;;;27.23;14.73;;;;;;;13.44;100.00;102089.50;5037825;28;20045;-48
2023/10/07 03:00:35;;;;;;;;;;;;;;;13.47;100.00;102086.63;5037275;28;20489;-48
2023/10/07 03:05:45;;;;;;;23.20;15.35;;;;;;;13.50;100.00;102091.72;5036250;28;20117;-48
2023/10/07 03:08:21;;;;;;;22.60;15.68;;;;;;;13.51;100.00;102088.09;5034472;28;20547;-48
2023/10/07 03:10:54;;;;;;;27.15;15.85;;;;;;;13.53;100.00;102088.00;5036425;28;20048;-48
2023/10/07 03:13:22;;;;;;;25.23;15.70;;;;;;;13.55;100.00;102085.22;5037470;28;20121;-47
2023/10/07 03:16:09;;;;;;;22.02;15.15;;;;;;;13.58;100.00;102087.69;5034844;28;20383;-48
2023/10/07 03:18:33;;;;;;;24.92;15.68;;;;;;;13.60;100.00;102091.09;5035645;28;20053;-49
2023/10/07 03:21:00;;;;;;;26.05;15.40;;;;;;;13.60;100.00;102091.09;5034507;28;20041;-48
2023/10/07 03:23:26;;;;;;;24.35;15.07;;;;;;;13.63;100.00;102090.91;5036413;28;20464;-48
2023/10/07 03:28:21;;;;;;;28.50;15.93;;;;;;;13.65;100.00;102084.47;5034619;28;20098;-48
2023/10/07 03:30:51;;;;;;;20.23;14.60;;;;;;;13.68;100.00;102084.25;5036890;28;20116;-48
2023/10/07 03:33:32;;;;;;;22.17;15.63;;;;;;;13.69;100.00;102080.63;5036087;28;20025;-47
2023/10/07 03:38:27;;;;;;;25.10;15.98;;;;;;;13.73;100.00;102065.25;5035799;28;20030;-47
2023/10/07 03:40:56;;;;;;;27.10;15.45;;;;;;;13.77;100.00;102077.44;5033813;28;20451;-47
2023/10/07 03:43:28;;;;;;;27.02;16.70;;;;;;;13.80;100.00;102073.69;5034498;28;20032;-48
2023/10/07 03:45:54;;;;;;;26.10;15.90;;;;;;;13.81;100.00;102067.41;5034821;28;20164;-48
2023/10/07 03:48:31;;;;;;;26.30;16.80;;;;;;;13.81;100.00;102065.56;5035978;28;20030;-48
2023/10/07 03:51:08;;;;;;;28.45;17.23;;;;;;;13.82;100.00;102059.28;5035179;28;20021;-47
2023/10/07 03:53:45;;;;;;;26.17;15.80;;;;;;;13.82;100.00;102055.72;5036765;28;20403;-48
2023/10/07 03:56:12;;;;;;;29.00;17.35;;;;;;;13.86;100.00;102055.41;5036326;28;20117;-48
2023/10/07 03:58:38;;;;;;;26.08;17.90;;;;;;;13.88;100.00;102049.97;5034754;28;20022;-48
2023/10/07 04:01:11;;;;;;;30.05;18.15;;;;;;;13.90;100.00;102049.84;5035018;28;20025;-47
2023/10/07 04:03:40;;;;;;;22.50;16.52;;;;;;;13.91;100.00;102048.91;5033251;28;20032;-47
2023/10/07 04:06:09;;;;;;;30.65;18.27;;;;;;;13.92;100.00;102045.25;5034708;28;20550;-47
2023/10/07 04:08:35;;;;;;;26.98;17.52;;;;;;;13.92;100.00;102043.41;5033453;28;20059;-48
2023/10/07 04:11:03;;;;;;;30.73;18.27;;;;;;;13.94;100.00;102045.97;5037906;28;20057;-47
2023/10/07 04:13:28;;;;;;;27.45;17.85;;;;;;;13.94;100.00;102033.50;5035128;28;20112;-47
2023/10/07 04:15:54;;;;;;;28.45;18.17;;;;;;;13.95;100.00;102034.34;5032933;28;20104;-48
2023/10/07 04:18:34;;;;;;;27.42;18.45;;;;;;;13.96;100.00;102041.41;5033459;28;20507;-48
2023/10/07 04:20:59;;;;;;;30.05;18.17;;;;;;;13.96;100.00;102022.72;5035632;28;20042;-48
2023/10/07 04:23:25;;;;;;;26.70;17.80;;;;;;;13.98;100.00;102036.81;5040623;28;20021;-48
2023/10/07 04:26:05;;;;;;;28.13;17.88;;;;;;;13.99;100.00;102039.38;5033224;28;20030;-47
2023/10/07 04:28:31;;;;;;;25.70;17.20;;;;;;;14.01;100.00;102041.94;5032981;28;20025;-47
2023/10/07 04:30:57;;;;;;;33.10;18.65;;;;;;;14.02;100.00;102044.50;5033264;28;20450;-48
2023/10/07 04:33:25;;;;;;;25.98;15.93;;;;;;;14.03;100.00;102038.16;5036843;28;20040;-47
2023/10/07 04:35:57;;;;;;;27.45;17.10;;;;;;;14.05;100.00;102056.75;5036896;28;20494;-47
2023/10/07 04:43:47;;;;;;;25.30;15.10;;;;;;;14.06;100.00;102048.63;5033981;28;20055;-48
2023/10/07 04:46:22;;;;;;;22.87;14.83;;;;;;;14.09;100.00;102057.38;5034435;28;20037;-48
2023/10/07 04:48:56;;;;;;;19.35;14.05;;;;;;;14.08;100.00;102067.22;5032613;28;20503;-48
2023/10/07 04:51:46;;;;;;;24.80;14.13;;;;;;;14.07;100.00;102058.38;5036787;28;20479;-47
2023/10/07 04:54:10;;;;;;;24.35;13.27;;;;;;;14.09;100.00;102057.38;5036973;28;20663;-48
2023/10/07 04:56:36;;;;;;;22.50;12.77;;;;;;;14.07;100.00;102057.50;5033546;28;20454;-49
2023/10/07 04:59:12;;;;;;;20.88;13.02;;;;;;;14.09;100.00;102047.56;5032714;28;20484;-49
2023/10/07 05:01:41;;;;;;;24.73;13.27;;;;;;;14.09;100.00;102052.03;5034869;28;20196;-48
2023/10/07 05:04:10;;;;;;;;;;;;;;;14.15;100.00;102051.59;5036495;28;20028;-47
2023/10/07 05:06:37;;;;;;;20.58;13.07;;;;;;;14.10;100.00;102051.94;5033355;28;19909;-47
2023/10/07 05:09:09;;;;;;;26.55;12.90;;;;;;;14.09;100.00;102054.72;5035452;28;20025;-48
2023/10/07 05:11:40;;;;;;;21.80;12.77;;;;;;;14.07;100.00;102060.16;5034011;28;20483;-48
2023/10/07 05:14:10;;;;;;;24.65;12.40;;;;;;;14.09;100.00;102054.72;5032292;28;20537;-48
2023/10/07 05:16:36;;;;;;;22.48;12.32;;;;;;;14.07;100.00;102061.03;5032250;28;20525;-48
2023/10/07 05:19:03;;;;;;;19.08;11.50;;;;;;;14.09;100.00;102060.94;5033541;28;20029;-49
2023/10/07 05:21:28;;;;;;;21.70;12.13;;;;;;;14.10;100.00;102057.28;5034045;28;20041;-47
2023/10/07 05:23:55;;;;;;;19.45;11.10;;;;;;;14.11;100.00;102067.00;5031646;28;20544;-48
2023/10/07 05:26:21;;;;;;;22.20;11.48;;;;;;;14.09;100.00;102068.94;5031053;28;20392;-48
2023/10/07 05:28:47;;;;;;;20.30;11.40;;;;;;;14.12;100.00;102079.41;5029894;28;20098;-47
2023/10/07 05:31:14;;;;;;;21.95;12.02;;;;;;;14.13;100.00;102048.19;5032459;28;20033;-47
2023/10/07 05:33:40;;;;;;;22.90;10.82;;;;;;;14.14;100.00;102047.22;5035397;28;20025;-47
2023/10/07 05:36:16;;;;;;;16.83;9.88;;;;;;;14.12;100.00;102043.81;5037183;28;20030;-47
2023/10/07 05:38:44;;;;;;;19.17;10.48;;;;;;;14.11;100.00;102036.78;5031763;28;20029;-47
2023/10/07 05:41:14;;;;;;;21.10;10.68;;;;;;;14.14;100.00;102050.75;5032701;28;20026;-47
2023/10/07 05:43:44;;;;;;;20.65;11.25;;;;;;;14.14;100.00;102052.56;5034115;28;20045;-46
2023/10/07 05:46:13;;;;;;;19.75;10.80;;;;;;;14.13;100.00;102057.06;5036013;28;20034;-47
2023/10/07 05:48:40;;;;;;;21.60;10.57;;;;;;;14.15;100.00;102048.94;5035049;28;20020;-47
2023/10/07 05:51:09;;;;;;;22.17;11.25;;;;;;;14.12;100.00;102055.38;5032201;28;20082;-47
2023/10/07 05:53:37;;;;;;;21.70;10.63;;;;;;;14.13;100.00;102053.53;5030400;28;20040;-47
2023/10/07 05:56:06;;;;;;;20.05;10.85;;;;;;;14.14;100.00;102058.78;5034518;28;20494;-47
2023/10/07 05:58:32;;;;;;;;;;;;;;;14.20;100.00;102050.28;5037300;28;20107;-46
2023/10/07 06:00:58;;;;;;;18.13;10.50;;;;;;;14.16;100.00;102056.00;5034133;28;19924;-47
2023/10/07 06:03:25;;;;;;;22.38;10.57;;;;;;;14.17;100.00;102058.56;5039692;28;20025;-46
2023/10/07 06:05:51;;;;;;;21.30;10.60;;;;;;;14.16;100.00;102072.03;5036618;28;20539;-48
2023/10/07 06:08:16;;;;;;;19.35;10.98;;;;;;;14.18;100.00;102062.91;5036262;28;20108;-46
2023/10/07 06:10:44;;;;;;;22.83;10.93;;;;;;;14.18;100.00;102070.94;5033800;28;20112;-47
2023/10/07 06:13:09;;;;;;;20.73;10.50;;;;;;;14.19;100.00;102064.63;5036378;28;20033;-47
2023/10/07 06:15:37;;;;;;;20.58;10.07;;;;;;;14.21;100.00;102072.53;5034660;28;20026;-47
2023/10/07 06:18:04;;;;;;;19.20;10.30;;;;;;;14.20;100.00;102063.66;5035528;28;20028;-48
2023/10/07 06:20:37;;;;;;;20.25;10.40;;;;;;;14.24;100.00;102069.66;5034575;28;20045;-47
2023/10/07 06:23:16;;;;;;;19.77;9.10;;;;;;;14.24;100.00;102065.16;5036294;28;20135;-47
2023/10/07 06:25:49;;;;;;;20.50;11.33;;;;;;;14.24;100.00;102057.16;5033203;28;20135;-46
2023/10/07 06:31:14;;;;;;;17.33;10.85;;;;;;;14.28;100.00;102083.66;5036347;28;20045;-47
2023/10/07 06:33:44;;;;;;;20.90;10.25;;;;;;;14.28;100.00;102086.31;5033339;28;20073;-47
2023/10/07 06:36:12;;;;;;;15.77;9.52;;;;;;;14.27;100.00;102093.47;5035548;28;20026;-48
2023/10/07 06:38:45;;;;;;;19.33;10.13;;;;;;;14.27;100.00;102098.81;5035789;28;20068;-47
2023/10/07 06:41:12;;;;;;;18.65;9.85;;;;;;;14.29;100.00;102096.03;5036018;28;20467;-46
2023/10/07 06:43:49;;;;;;;14.05;9.88;;;;;;;14.30;100.00;102092.41;5038149;28;20035;-47
2023/10/07 06:46:20;;;;;;;17.30;8.73;;;;;;;14.29;100.00;102083.53;5033025;28;20391;-48
2023/10/07 06:48:48;;;;;;;15.95;9.55;;;;;;;14.31;100.00;102084.28;5035430;28;20112;-48
2023/10/07 06:51:14;;;;;;;18.88;9.43;;;;;;;14.33;100.00;102092.19;5035225;28;20025;-48
2023/10/07 06:53:42;;;;;;;18.27;9.50;;;;;;;14.33;100.00;102103.72;5031923;28;20041;-47
2023/10/07 06:56:12;;;;;;;17.30;8.80;;;;;;;14.35;100.00;102101.78;5030883;28;20038;-48
2023/10/07 06:58:38;;;;;;;16.15;9.40;;;;;;;14.38;100.00;102101.56;5032756;28;20040;-47
2023/10/07 07:01:16;;;;;;;16.27;8.98;;;;;;;14.40;100.00;102106.78;5034171;28;20030;-47
2023/10/07 07:03:42;;;;;;;18.90;8.82;;;;;;;14.42;100.00;102110.19;5037327;28;20542;-48
2023/10/07 07:06:16;;;;;;;19.30;8.85;;;;;;;14.44;100.00;102103.78;5037046;28;20063;-47
2023/10/07 07:08:42;;;;;;;16.08;8.77;;;;;;;14.46;100.00;102090.31;5036066;28;20104;-48
2023/10/07 07:11:10;;;;;;;15.68;9.02;;;;;;;14.49;100.00;102094.56;5038073;28;20079;-47
2023/10/07 07:13:37;;;;;;;19.48;9.23;;;;;;;14.51;100.00;102104.19;5038966;28;20037;-46
2023/10/07 07:16:08;;;;;;;16.58;8.65;;;;;;;14.54;100.00;102106.66;5037167;28;20029;-47
2023/10/07 07:18:39;;;;;;;15.75;8.63;;;;;;;14.58;100.00;102115.28;5038728;28;20025;-47
2023/10/07 07:23:50;;;;;;;20.85;8.60;;;;;;;14.65;100.00;102115.72;5038649;28;20103;-47
2023/10/07 07:26:20;;;;;;;16.17;8.32;;;;;;;14.66;100.00;102118.28;5043789;28;20029;-47
2023/10/07 07:28:46;;;;;;;22.35;8.45;;;;;;;14.68;100.00;102119.03;5042724;28;20028;-47
2023/10/07 07:31:18;;;;;;;14.63;8.10;;;;;;;14.71;100.00;102117.97;5042665;28;20461;-47
2023/10/07 07:33:48;;;;;;;17.25;8.43;;;;;;;14.75;100.00;102124.78;5044197;28;20036;-47
2023/10/07 07:36:37;;;;;;;16.40;7.68;;;;;;;14.74;100.00;102117.75;5040839;28;20032;-47
2023/10/07 07:39:09;;;;;;;15.65;8.38;;;;;;;14.82;100.00;102125.19;5042416;28;20033;-47
2023/10/07 07:41:54;;;;;;;15.98;8.15;;;;;;;14.84;100.00;102123.22;5044203;28;20059;-47
2023/10/07 07:44:32;;;;;;;14.73;8.05;;;;;;;14.88;100.00;102128.25;5042943;28;20029;-50
2023/10/07 07:46:58;;;;;;;16.58;7.55;;;;;;;14.92;100.00;102126.19;5041927;28;20040;-46
2023/10/07 07:49:27;;;;;;;17.05;7.95;;;;;;;14.98;100.00;102117.72;5044487;28;20072;-46
2023/10/07 07:51:53;;;;;;;15.65;8.20;;;;;;;15.05;100.00;102123.47;5041372;28;20027;-46
2023/10/07 07:54:18;;;;;;;20.02;8.75;;;;;;;15.11;100.00;102112.31;5036937;28;20029;-46
2023/10/07 07:56:45;;;;;;;12.27;7.70;;;;;;;15.16;100.00;102124.34;5040209;28;20025;-47
2023/10/07 07:59:13;;;;;;;14.82;7.80;;;;;;;15.22;100.00;102127.53;5039613;28;20467;-47
2023/10/07 08:01:46;;;;;;;17.37;8.37;;;;;;;15.26;100.00;102134.38;5038808;28;20476;-48
2023/10/07 08:04:17;;;;;;;14.48;8.18;;;;;;;15.34;100.00;102137.31;5037272;28;20105;-48
2023/10/07 08:06:49;;;;;;;20.52;8.05;;;;;;;15.44;100.00;102141.00;5037711;28;20095;-48
2023/10/07 08:09:19;;;;;;;17.80;8.18;;;;;;;15.60;100.00;102145.16;5045332;28;20167;-48
2023/10/07 08:11:46;;;;;;;16.13;8.15;;;;;;;15.72;100.00;102141.53;5042001;28;20025;-47
2023/10/07 08:14:12;;;;;;;19.15;7.90;;;;;;;15.84;100.00;102143.28;5041475;28;20142;-48
2023/10/07 08:16:50;;;;;;;18.55;8.23;;;;;;;15.96;100.00;102143.31;5040987;28;20484;-48
2023/10/07 08:19:20;;;;;;;16.08;7.03;;;;;;;16.11;100.00;102152.81;5036593;28;20025;-48
2023/10/07 08:21:51;;;;;;;14.32;7.15;;;;;;;16.19;100.00;102152.22;5035675;28;20036;-48
2023/10/07 08:24:18;;;;;;;18.73;8.05;;;;;;;16.33;100.00;102157.31;5042988;28;20494;-48
2023/10/07 08:26:48;;;;;;;13.27;6.95;;;;;;;16.48;100.00;102149.84;5035813;28;20037;-48
2023/10/07 08:29:40;;;;;;;13.60;6.53;;;;;;;16.66;100.00;102142.13;5037965;28;20110;-48
2023/10/07 08:32:28;;;;;;;16.63;6.38;;;;;;;16.79;100.00;102144.69;5040249;28;20048;-48
2023/10/07 08:34:59;;;;;;;15.57;6.55;;;;;;;16.89;100.00;102137.59;5040456;28;20486;-47
2023/10/07 08:37:25;;;;;;;14.55;7.05;;;;;;;17.05;100.00;102137.16;5039925;28;20050;-48
2023/10/07 08:39:56;;;;;;;12.57;5.80;;;;;;;17.14;100.00;102139.06;5040119;28;20064;-48
2023/10/07 08:42:26;;;;;;;12.75;6.20;;;;;;;17.32;100.00;102144.72;5040295;28;20380;-48
2023/10/07 08:44:54;;;;;;;15.77;6.53;;;;;;;17.45;100.00;102147.22;5041283;28;20081;-47
2023/10/07 08:47:21;;;;;;;16.73;7.47;;;;;;;17.63;100.00;102141.25;5038557;28;20399;-49
2023/10/07 08:49:48;;;;;;;14.70;6.47;;;;;;;17.74;99.09;102152.78;5046763;28;20429;-48
2023/10/07 08:52:16;;;;;;;12.88;6.38;;;;;;;17.91;99.51;102148.66;5038391;28;20022;-47
2023/10/07 08:54:44;;;;;;;10.88;6.15;;;;;;;18.03;96.84;102140.50;5042414;28;20491;-47
2023/10/07 08:57:22;;;;;;;13.10;5.43;;;;;;;18.15;97.71;102143.94;5042002;28;20056;-48
2023/10/07 08:59:52;;;;;;;11.10;5.45;;;;;;;18.23;94.47;102142.28;5042006;28;20040;-48
2023/10/07 09:02:26;;;;;;;14.00;5.57;;;;;;;18.37;95.62;102127.63;5037150;28;20026;-48
2023/10/07 09:04:55;;;;;;;13.70;5.80;;;;;;;18.40;92.87;102138.09;5040218;28;20059;-48
2023/10/07 09:07:22;;;;;;;;;;;;;;;18.49;97.69;102133.72;5035684;28;20033;-49
2023/10/07 09:09:48;;;;;;;11.75;4.93;;;;;;;18.62;95.22;102137.00;5039814;28;20298;-47
2023/10/07 09:12:18;;;;;;;11.32;5.22;;;;;;;18.74;90.78;102142.28;5036498;28;20519;-47
2023/10/07 09:14:52;;;;;;;12.43;5.43;;;;;;;18.82;90.42;102129.81;5036892;28;20056;-47
2023/10/07 09:17:23;;;;;;;11.82;5.47;;;;;;;18.95;89.54;102128.72;5036674;28;20037;-47
2023/10/07 09:19:52;;;;;;;9.60;4.80;;;;;;;19.08;89.41;102131.97;5035656;28;20045;-47
2023/10/07 09:22:24;;;;;;;11.35;5.57;;;;;;;19.09;86.80;102120.22;5039356;28;20045;-49
2023/10/07 09:24:54;;;;;;;11.38;5.30;;;;;;;19.21;85.61;102120.91;5033708;28;20047;-48
2023/10/07 09:27:36;;;;;;;11.88;5.10;;;;;;;19.33;86.60;102108.97;5046587;28;20025;-48
2023/10/07 09:30:34;;;;;;;11.05;4.88;;;;;;;19.49;84.77;102124.56;5043332;28;20083;-47
2023/10/07 09:32:52;;;;;;;9.27;4.47;;;;;;;19.60;83.78;102134.31;5041488;28;20040;-47
2023/10/07 09:35:22;;;;;;;11.82;4.45;;;;;;;19.73;86.07;102126.78;5037257;28;20079;-48
2023/10/07 09:37:48;;;;;;;11.52;5.10;;;;;;;19.78;82.17;102131.75;5039881;28;20048;-47
2023/10/07 09:40:53;;;;;;;11.75;4.70;;;;;;;19.89;83.41;102130.72;5040424;28;20024;-47
2023/10/07 09:43:07;;;;;;;10.30;4.68;;;;;;;20.07;82.90;102128.94;5036292;28;20032;-47
2023/10/07 09:45:37;;;;;;;11.77;4.75;;;;;;;20.20;82.22;102125.91;5037849;28;20030;-47
2023/10/07 09:48:05;;;;;;;11.77;4.93;;;;;;;20.28;80.09;102122.44;5037677;28;20029;-47
2023/10/07 09:50:33;;;;;;;10.77;4.85;;;;;;;20.40;78.64;102136.59;5040474;28;20525;-48
2023/10/07 09:53:24;;;;;;;10.20;4.30;;;;;;;20.57;82.08;102126.81;5036544;28;20029;-48
2023/10/07 09:56:21;;;;;;;10.55;4.30;;;;;;;20.65;79.57;102125.09;5038907;28;20068;-48
2023/10/07 09:59:18;;;;;;;13.75;5.28;;;;;;;20.74;79.24;102117.94;5041725;28;20025;-48
2023/10/07 10:02:23;;;;;;;12.23;4.22;;;;;;;20.88;79.23;102116.53;5036796;28;20380;-45
2023/10/07 10:05:12;;;;;;;8.73;3.72;;;;;;;21.01;78.21;102108.88;5035712;28;20022;-45
2023/10/07 10:08:11;;;;;;;11.02;4.53;;;;;;;21.11;78.32;102122.31;5039582;28;20546;-46
2023/10/07 10:10:45;;;;;;;;;;;;;;;21.25;80.12;102118.22;5041250;28;20479;-46
2023/10/07 10:14:16;;;;;;;10.75;4.20;;;;;;;21.31;76.62;102132.94;5038973;28;19920;-45
2023/10/07 10:16:14;;;;;;;8.98;4.15;;;;;;;21.50;74.82;102132.78;5041408;28;20041;-45
2023/10/07 10:19:11;;;;;;;9.18;4.22;;;;;;;21.61;74.58;102137.91;5035919;28;20017;-48
2023/10/07 10:21:36;;;;;;;10.50;3.85;;;;;;;21.77;73.03;102141.75;5039298;28;20068;-48
2023/10/07 10:24:02;;;;;;;8.70;4.03;;;;;;;21.86;73.09;102148.06;5037347;28;20100;-50
2023/10/07 10:26:33;;;;;;;10.32;4.28;;;;;;;21.88;71.07;102141.47;5032887;28;20029;-48
2023/10/07 10:29:07;;;;;;;7.35;4.00;;;;;;;21.86;70.47;102148.06;5039346;28;20018;-46
2023/10/07 10:31:37;;;;;;;14.73;3.90;;;;;;;22.06;70.40;102152.22;5039614;28;20035;-46
2023/10/07 10:34:06;;;;;;;11.88;4.07;;;;;;;22.15;70.79;102153.13;5032998;28;20101;-46
2023/10/07 10:36:38;;;;;;;7.45;4.07;;;;;;;22.28;68.45;102148.13;5044065;28;20029;-46
2023/10/07 10:39:12;;;;;;;7.82;3.65;;;;;;;22.37;68.73;102162.53;5038515;28;20215;-48
2023/10/07 10:41:38;;;;;;;9.32;4.00;;;;;;;22.35;67.60;102160.00;5042340;28;20568;-46
2023/10/07 10:44:10;;;;;;;9.30;4.60;;;;;;;22.40;69.38;102153.22;5036238;28;20507;-46
2023/10/07 10:46:49;;;;;;;10.25;3.80;;;;;;;22.47;68.48;102162.41;5037757;28;20483;-47
2023/10/07 10:49:18;;;;;;;9.13;4.53;;;;;;;22.44;65.76;102154.59;5033001;28;20434;-46
2023/10/07 10:51:46;;;;;;;10.52;4.30;;;;;;;22.39;66.42;102144.25;5038647;28;20032;-46
2023/10/07 10:54:15;;;;;;;10.82;4.45;;;;;;;22.49;67.14;102142.25;5034415;28;20029;-46
2023/10/07 10:56:47;;;;;;;8.82;4.05;;;;;;;22.58;66.34;102145.00;5035108;28;20420;-46
2023/10/07 10:59:14;;;;;;;8.13;4.18;;;;;;;22.71;65.73;102138.06;5039588;28;20027;-46
2023/10/07 11:01:43;;;;;;;9.68;4.30;;;;;;;22.76;65.07;102143.00;5035337;28;20030;-45
2023/10/07 11:04:12;;;;;;;9.05;4.60;;;;;;;22.69;63.44;102136.56;5042168;28;20024;-46
2023/10/07 11:06:38;;;;;;;10.45;4.55;;;;;;;22.68;64.88;102133.03;5039781;28;20066;-47
2023/10/07 11:09:03;;;;;;;11.43;4.15;;;;;;;22.78;63.78;102129.28;5041374;28;20057;-46
2023/10/07 11:11:29;;;;;;;11.48;4.85;;;;;;;22.75;64.55;102141.31;5039943;28;20061;-46
2023/10/07 11:13:56;;;;;;;11.30;4.20;;;;;;;22.83;64.45;102122.38;5041689;28;20022;-45
2023/10/07 11:16:22;;;;;;;10.68;4.50;;;;;;;22.91;65.62;102124.22;5039612;28;20029;-46
2023/10/07 11:18:49;;;;;;;12.60;4.10;;;;;;;23.15;65.98;102130.69;5043870;28;20102;-46
2023/10/07 11:21:18;;;;;;;7.25;4.18;;;;;;;23.12;64.02;102120.22;5038055;28;20088;-47
2023/10/07 11:23:46;;;;;;;10.32;4.70;;;;;;;23.18;64.47;102127.66;5039912;28;20053;-46
2023/10/07 11:26:12;;;;;;;;;;;;;;;23.36;66.66;102119.34;5038092;28;20075;-46
2023/10/07 11:28:39;;;;;;;12.33;4.60;;;;;;;23.12;62.82;102120.22;5036907;28;19945;-46
2023/10/07 11:31:07;;;;;;;11.60;3.95;;;;;;;23.09;63.97;102122.22;5042007;28;20098;-46
2023/10/07 11:33:34;;;;;;;8.90;4.05;;;;;;;23.16;64.80;102113.44;5041457;28;20025;-47
2023/10/07 11:36:00;;;;;;;9.98;4.40;;;;;;;23.17;63.07;102115.97;5035147;28;20025;-48
2023/10/07 11:38:26;;;;;;;9.48;4.57;;;;;;;23.02;63.29;102115.78;5033332;28;20052;-48
2023/10/07 11:40:52;;;;;;;11.30;4.95;;;;;;;23.03;63.17;102109.34;5036481;28;20111;-48
2023/10/07 11:43:17;;;;;;;9.90;4.18;;;;;;;23.06;64.03;102106.31;5038743;28;20033;-48
2023/10/07 11:45:44;;;;;;;12.32;4.30;;;;;;;22.98;64.03;102111.72;5043365;28;20037;-47
2023/10/07 11:48:09;;;;;;;10.40;4.70;;;;;;;22.97;62.71;102106.47;5046363;28;20052;-47
2023/10/07 11:50:35;;;;;;;9.80;4.07;;;;;;;22.98;63.93;102111.72;5039544;28;20427;-45
2023/10/07 11:53:04;;;;;;;8.55;4.20;;;;;;;22.95;65.62;102113.91;5045085;28;20116;-47
2023/10/07 11:55:32;;;;;;;8.60;3.63;;;;;;;22.91;64.40;102111.56;5043035;28;20044;-50